Time;durP1;ratioP1;P1;durP2;ratioP2;P2;SDS_P1;SDS_P2;PMS_P1;PMS_P2;Temp;Humidity;BMP_temperature;BMP_pressure;BME280_temperature;BME280_humidity;BME280_pressure;Samples;Min_cycle;Max_cycle;Signal;HPM_P1;HPM_P2
2021/09/04 00:01:28;;;;;;;14.27;2.15;;;;;;;31.04;22.81;98279.34;5069889;28;20114;-84
2021/09/04 00:03:54;;;;;;;3.22;1.50;;;;;;;31.09;23.08;98278.66;5069589;28;20029;-84
2021/09/04 00:06:20;;;;;;;1.30;1.10;;;;;;;31.12;22.82;98274.88;5052601;28;20048;-84
2021/09/04 00:08:46;;;;;;;2.67;1.33;;;;;;;31.11;23.14;98276.16;5070350;28;20028;-83
2021/09/04 00:11:12;;;;;;;2.25;1.38;;;;;;;31.09;23.20;98276.63;5070129;28;20121;-83
2021/09/04 00:13:38;;;;;;;1.17;0.93;;;;;;;31.16;23.12;98266.97;5070422;28;20043;-83
2021/09/04 00:16:04;;;;;;;1.63;1.30;;;;;;;31.14;22.86;98273.13;5070253;28;20024;-83
2021/09/04 00:18:33;;;;;;;2.17;1.23;;;;;;;31.02;22.98;98267.66;5047010;28;20119;-83
2021/09/04 00:21:00;;;;;;;1.58;1.30;;;;;;;31.00;22.89;98267.34;5069795;28;20415;-83
2021/09/04 00:23:27;;;;;;;1.38;1.10;;;;;;;30.94;22.98;98266.44;5051736;28;20037;-83
2021/09/04 00:25:53;;;;;;;2.45;1.35;;;;;;;30.91;23.67;98273.03;5069018;28;20484;-83
2021/09/04 00:28:19;;;;;;;1.77;1.02;;;;;;;31.03;23.12;98272.88;5067176;28;20029;-83
2021/09/04 00:30:45;;;;;;;2.58;1.00;;;;;;;30.89;22.79;98258.56;5068837;28;20456;-83
2021/09/04 00:33:11;;;;;;;1.52;1.40;;;;;;;30.78;22.86;98264.72;5068096;28;20542;-83
2021/09/04 00:35:38;;;;;;;1.65;1.17;;;;;;;30.69;22.87;98273.25;5069533;28;20051;-83
2021/09/04 00:38:04;;;;;;;2.95;1.38;;;;;;;30.68;23.12;98268.81;5068927;28;20032;-83
2021/09/04 00:40:30;;;;;;;1.60;1.15;;;;;;;30.62;23.42;98267.91;5052787;28;20074;-83
2021/09/04 00:42:56;;;;;;;2.92;1.45;;;;;;;30.65;23.13;98270.56;5070421;28;20025;-83
2021/09/04 00:45:22;;;;;;;1.48;1.10;;;;;;;30.75;23.12;98269.28;5071433;28;20029;-83
2021/09/04 00:48:07;;;;;;;2.13;1.20;;;;;;;30.79;22.95;98266.28;5070089;28;20384;-83
2021/09/04 00:50:35;;;;;;;1.55;1.17;;;;;;;30.89;22.97;98272.75;5064917;28;20514;-83
2021/09/04 00:53:02;;;;;;;1.58;1.17;;;;;;;30.81;23.19;98269.41;5070179;28;20025;-83
2021/09/04 00:55:29;;;;;;;1.20;1.10;;;;;;;30.82;23.30;98267.38;5068745;28;20115;-83
2021/09/04 00:57:56;;;;;;;2.13;1.35;;;;;;;30.89;22.86;98265.03;5052552;28;20492;-83
2021/09/04 01:00:22;;;;;;;2.50;1.45;;;;;;;30.98;22.89;98269.88;5069021;28;20029;-83
2021/09/04 01:02:48;;;;;;;1.58;1.40;;;;;;;31.10;22.76;98266.06;5070029;28;20040;-83
2021/09/04 01:05:14;;;;;;;1.58;1.10;;;;;;;31.23;22.48;98266.63;5069681;28;20029;-83
2021/09/04 01:07:42;;;;;;;5.18;1.98;;;;;;;31.30;22.57;98258.56;5067952;28;20036;-83
2021/09/04 01:10:10;;;;;;;1.23;1.00;;;;;;;31.15;22.67;98265.44;5052131;28;20084;-83
2021/09/04 01:12:37;;;;;;;1.67;1.15;;;;;;;31.20;22.79;98264.78;5068770;28;20502;-83
2021/09/04 01:15:06;;;;;;;1.38;1.17;;;;;;;31.33;22.81;98265.34;5069619;28;20028;-83
2021/09/04 01:17:33;;;;;;;1.73;1.30;;;;;;;31.26;22.75;98268.53;5070464;28;20021;-83
2021/09/04 01:19:59;;;;;;;2.58;1.60;;;;;;;31.32;22.68;98270.22;5068883;28;20052;-83
2021/09/04 01:22:29;;;;;;;1.00;0.90;;;;;;;31.37;22.58;98280.13;5053195;28;20055;-83
2021/09/04 01:24:59;;;;;;;2.97;1.13;;;;;;;31.31;22.76;98271.50;5044828;28;20025;-83
2021/09/04 01:27:25;;;;;;;1.67;0.90;;;;;;;31.21;23.03;98272.00;5070000;28;20047;-83
2021/09/04 01:29:51;;;;;;;1.50;1.13;;;;;;;31.41;22.78;98273.03;5063480;28;20024;-83
2021/09/04 01:32:17;;;;;;;2.33;1.40;;;;;;;31.48;22.81;98269.09;5069877;28;20043;-83
2021/09/04 01:34:44;;;;;;;2.20;1.35;;;;;;;31.49;22.62;98264.97;5071950;28;20037;-83
2021/09/04 01:37:10;;;;;;;1.50;1.00;;;;;;;31.41;22.97;98266.59;5073395;28;20029;-83
2021/09/04 01:39:36;;;;;;;1.38;1.17;;;;;;;31.34;23.00;98270.53;5073243;28;20036;-83
2021/09/04 01:42:02;;;;;;;1.70;1.42;;;;;;;31.45;22.64;98266.44;5054530;28;20079;-84
2021/09/04 01:44:28;;;;;;;2.28;1.13;;;;;;;31.62;22.50;98271.25;5073513;28;20138;-83
2021/09/04 01:46:54;;;;;;;2.35;1.40;;;;;;;31.68;22.38;98265.69;5073835;28;20032;-83
2021/09/04 01:49:20;;;;;;;1.20;1.05;;;;;;;31.73;22.11;98267.84;5053666;28;20222;-83
2021/09/04 01:51:46;;;;;;;3.33;1.17;;;;;;;31.75;22.51;98262.47;5073396;28;20040;-83
2021/09/04 01:54:12;;;;;;;2.85;1.30;;;;;;;31.49;22.63;98256.47;5073835;28;20078;-83
2021/09/04 01:56:38;;;;;;;1.65;1.38;;;;;;;31.37;23.00;98258.22;5073766;28;20037;-83
2021/09/04 01:59:04;;;;;;;1.38;1.27;;;;;;;31.16;23.06;98256.44;5073535;28;20051;-83
2021/09/04 02:01:30;;;;;;;1.27;1.00;;;;;;;31.26;23.22;98251.50;5054799;28;20408;-83
2021/09/04 02:03:56;;;;;;;1.42;1.00;;;;;;;31.33;22.80;98257.63;5074129;28;20029;-83
2021/09/04 02:06:22;;;;;;;1.30;1.13;;;;;;;31.07;23.21;98256.47;5054971;28;20039;-83
2021/09/04 02:08:48;;;;;;;1.20;1.10;;;;;;;30.98;23.14;98253.66;5073113;28;20032;-82
2021/09/04 02:11:14;;;;;;;1.20;0.98;;;;;;;30.91;23.63;98248.31;5072673;28;20041;-83
2021/09/04 02:13:40;;;;;;;1.48;1.10;;;;;;;30.97;23.42;98248.47;5070983;28;20074;-83
2021/09/04 02:16:06;;;;;;;1.67;1.42;;;;;;;30.98;23.17;98245.16;5073317;28;20037;-83
2021/09/04 02:18:33;;;;;;;2.55;1.27;;;;;;;30.97;23.10;98252.06;5074010;28;20041;-83
2021/09/04 02:21:00;;;;;;;1.35;1.05;;;;;;;30.92;23.08;98247.06;5072474;28;20097;-83
2021/09/04 02:23:26;;;;;;;1.50;1.40;;;;;;;30.96;23.31;98247.69;5072749;28;20104;-83
2021/09/04 02:25:53;;;;;;;1.90;1.35;;;;;;;30.99;22.94;98246.72;5072199;28;20484;-82
2021/09/04 02:28:19;;;;;;;1.98;1.17;;;;;;;31.04;22.69;98239.63;5054346;28;20025;-83
2021/09/04 02:30:45;;;;;;;1.48;1.30;;;;;;;31.06;22.54;98248.44;5072974;28;20044;-83
2021/09/04 02:33:11;;;;;;;1.35;1.02;;;;;;;31.09;22.66;98247.47;5072712;28;20029;-83
2021/09/04 02:35:37;;;;;;;1.33;1.08;;;;;;;30.70;23.25;98255.75;5072786;28;20068;-83
2021/09/04 02:38:03;;;;;;;1.35;1.15;;;;;;;30.43;23.77;98249.31;5053418;28;20031;-83
2021/09/04 02:40:29;;;;;;;1.90;1.40;;;;;;;30.58;22.99;98256.69;5072181;28;20048;-83
2021/09/04 02:42:56;;;;;;;2.42;1.02;;;;;;;30.57;22.69;98245.84;5071444;28;20032;-83
2021/09/04 02:45:22;;;;;;;1.73;1.30;;;;;;;30.40;23.14;98241.78;5074864;28;20056;-83
2021/09/04 02:47:48;;;;;;;1.35;1.10;;;;;;;30.34;23.37;98244.44;5072325;28;20028;-83
2021/09/04 02:50:14;;;;;;;1.05;0.75;;;;;;;30.38;23.09;98241.47;5070556;28;20056;-83
2021/09/04 02:52:40;;;;;;;1.98;1.33;;;;;;;30.39;23.14;98243.81;5073147;28;20039;-83
2021/09/04 02:55:07;;;;;;;1.33;1.13;;;;;;;30.42;22.74;98245.72;5071583;28;20153;-82
2021/09/04 02:57:33;;;;;;;1.55;1.20;;;;;;;30.52;22.78;98257.81;5072779;28;20496;-83
2021/09/04 02:59:59;;;;;;;1.75;1.00;;;;;;;30.60;22.74;98257.00;5071946;28;20047;-83
2021/09/04 03:02:25;;;;;;;1.85;1.40;;;;;;;30.49;23.13;98250.25;5071978;28;20036;-83
2021/09/04 03:04:51;;;;;;;1.63;1.23;;;;;;;30.58;23.12;98250.25;5054522;28;20033;-83
2021/09/04 03:07:17;;;;;;;1.50;1.35;;;;;;;30.22;23.27;98259.53;5062265;28;20370;-83
2021/09/04 03:09:43;;;;;;;1.95;1.13;;;;;;;30.01;23.56;98258.41;5051990;28;20038;-83
2021/09/04 03:12:09;;;;;;;2.78;2.08;;;;;;;29.91;23.65;98253.22;5072814;28;20115;-83
2021/09/04 03:14:35;;;;;;;1.95;1.30;;;;;;;30.08;23.23;98252.44;5071130;28;20036;-83
2021/09/04 03:17:02;;;;;;;1.48;1.05;;;;;;;30.31;24.17;98253.88;5071679;28;20065;-82
2021/09/04 03:19:28;;;;;;;1.88;1.30;;;;;;;30.45;22.63;98247.59;5072329;28;20435;-83
2021/09/04 03:21:54;;;;;;;1.30;1.20;;;;;;;30.03;22.78;98241.75;5053515;28;20095;-83
2021/09/04 03:24:20;;;;;;;1.50;1.35;;;;;;;29.98;23.19;98247.25;5071304;28;20138;-83
2021/09/04 03:26:46;;;;;;;2.08;1.13;;;;;;;29.85;23.38;98240.94;5071930;28;20032;-83
2021/09/04 03:29:12;;;;;;;2.35;1.67;;;;;;;30.00;23.27;98241.91;5071506;28;20060;-83
2021/09/04 03:31:38;;;;;;;1.83;1.08;;;;;;;30.07;22.85;98236.72;5071102;28;20369;-83
2021/09/04 03:34:04;;;;;;;1.50;1.10;;;;;;;29.99;23.19;98243.94;5070548;28;20032;-83
2021/09/04 03:36:30;;;;;;;1.08;0.98;;;;;;;30.17;23.15;98245.22;5072065;28;20080;-83
2021/09/04 03:38:56;;;;;;;1.15;1.05;;;;;;;30.29;23.13;98247.09;5071301;28;20541;-83
2021/09/04 03:41:22;;;;;;;1.75;1.38;;;;;;;30.25;22.97;98255.75;5070392;28;20064;-83
2021/09/04 03:43:48;;;;;;;1.55;1.20;;;;;;;30.09;23.11;98259.69;5071416;28;20086;-83
2021/09/04 03:46:14;;;;;;;1.52;1.33;;;;;;;29.92;23.17;98261.22;5071354;28;20032;-83
2021/09/04 03:48:40;;;;;;;1.77;1.00;;;;;;;29.90;23.37;98255.25;5070705;28;20040;-83
2021/09/04 03:51:06;;;;;;;1.63;1.10;;;;;;;30.04;23.47;98262.34;5070893;28;20025;-83
2021/09/04 03:53:33;;;;;;;1.98;1.25;;;;;;;30.27;22.86;98263.78;5071359;28;20094;-83
2021/09/04 03:55:59;;;;;;;1.42;1.17;;;;;;;30.30;22.57;98269.28;5070685;28;20033;-83
2021/09/04 03:58:25;;;;;;;1.27;1.10;;;;;;;30.35;22.42;98274.34;5071234;28;20048;-83
2021/09/04 04:00:51;;;;;;;1.33;1.02;;;;;;;30.38;22.34;98273.41;5050511;28;20056;-83
2021/09/04 04:03:17;;;;;;;1.95;1.08;;;;;;;30.43;22.31;98275.63;5051840;28;20068;-83
2021/09/04 04:05:43;;;;;;;1.92;1.33;;;;;;;30.52;22.15;98264.28;5069595;28;20043;-82
2021/09/04 04:08:09;;;;;;;1.70;1.60;;;;;;;30.49;21.79;98273.72;5068829;28;20123;-82
2021/09/04 04:10:35;;;;;;;1.10;1.00;;;;;;;30.44;21.56;98271.50;5069984;28;20060;-83
2021/09/04 04:13:01;;;;;;;2.05;1.17;;;;;;;30.10;21.95;98263.31;5070094;28;20292;-82
2021/09/04 04:15:27;;;;;;;3.47;1.15;;;;;;;29.82;22.10;98268.16;5071041;28;20104;-83
2021/09/04 04:17:53;;;;;;;2.35;1.00;;;;;;;29.74;22.29;98266.84;5071444;28;20031;-84
2021/09/04 04:20:19;;;;;;;1.23;0.93;;;;;;;29.64;22.36;98264.47;5071646;28;20036;-83
2021/09/04 04:22:45;;;;;;;1.88;1.23;;;;;;;29.72;22.46;98266.50;5071728;28;20476;-83
2021/09/04 04:25:12;;;;;;;1.20;1.10;;;;;;;29.93;22.20;98264.84;5070150;28;20499;-83
2021/09/04 04:27:38;;;;;;;2.00;1.33;;;;;;;30.09;22.13;98264.56;5065352;28;20644;-83
2021/09/04 04:30:05;;;;;;;1.13;1.02;;;;;;;30.17;22.29;98265.84;5070478;28;20025;-83
2021/09/04 04:32:32;;;;;;;1.70;1.08;;;;;;;30.14;22.13;98266.75;5072055;28;20430;-83
2021/09/04 04:34:58;;;;;;;1.17;1.08;;;;;;;30.29;22.07;98272.59;5071977;28;20408;-83
2021/09/04 04:37:24;;;;;;;1.10;0.95;;;;;;;30.43;21.97;98269.97;5075401;28;20033;-83
2021/09/04 04:39:50;;;;;;;1.65;0.95;;;;;;;30.47;22.06;98273.41;5067789;28;20136;-83
2021/09/04 04:42:16;;;;;;;1.10;1.00;;;;;;;30.19;22.21;98277.47;5072373;28;20543;-83
2021/09/04 04:44:42;;;;;;;1.15;1.05;;;;;;;30.16;22.86;98289.72;5072114;28;20033;-83
2021/09/04 04:47:09;;;;;;;1.00;0.90;;;;;;;30.18;22.89;98284.38;5043644;28;20045;-83
2021/09/04 04:49:35;;;;;;;1.02;0.90;;;;;;;30.41;22.93;98283.78;5058426;28;20094;-83
2021/09/04 04:52:01;;;;;;;1.20;0.98;;;;;;;30.77;22.83;98283.78;5073617;28;20449;-83
2021/09/04 04:54:27;;;;;;;1.00;0.90;;;;;;;31.10;22.68;98281.03;5071293;28;20492;-83
2021/09/04 04:56:53;;;;;;;0.70;0.70;;;;;;;31.38;22.64;98282.53;5041737;28;20048;-84
2021/09/04 04:59:19;;;;;;;0.98;0.80;;;;;;;31.62;22.68;98278.97;5072452;28;20104;-83
2021/09/04 05:01:45;;;;;;;0.82;0.70;;;;;;;31.85;22.62;98272.53;5069837;28;20037;-83
2021/09/04 05:04:11;;;;;;;0.65;0.65;;;;;;;32.13;22.63;98271.09;5069212;28;20044;-84
2021/09/04 05:06:37;;;;;;;1.10;0.88;;;;;;;32.19;22.82;98268.34;5051131;28;20037;-83
2021/09/04 05:09:03;;;;;;;1.05;0.75;;;;;;;32.33;22.55;98265.56;5070031;28;20032;-84
2021/09/04 05:11:29;;;;;;;0.75;0.70;;;;;;;32.24;22.47;98271.31;5058033;28;20058;-84
2021/09/04 05:13:55;;;;;;;6.63;1.00;;;;;;;31.82;22.80;98271.44;5076649;28;20040;-83
2021/09/04 05:16:22;;;;;;;1.05;0.90;;;;;;;31.67;23.61;98272.63;5072977;28;20058;-84
2021/09/04 05:18:48;;;;;;;0.50;0.50;;;;;;;31.85;23.66;98278.19;5076007;28;20040;-84
2021/09/04 05:21:14;;;;;;;2.65;1.05;;;;;;;32.27;23.19;98270.34;5075369;28;20064;-84
2021/09/04 05:23:40;;;;;;;1.40;0.93;;;;;;;32.64;22.66;98270.84;5075750;28;20403;-84
2021/09/04 05:26:06;;;;;;;1.48;1.30;;;;;;;32.82;22.53;98270.66;5080812;28;20471;-84
2021/09/04 05:28:32;;;;;;;1.73;1.50;;;;;;;33.12;22.35;98271.47;5076570;28;20115;-84
2021/09/04 05:31:00;;;;;;;1.27;1.17;;;;;;;32.83;22.81;98268.59;5074786;28;20036;-84
2021/09/04 05:33:26;;;;;;;1.08;1.00;;;;;;;32.29;23.77;98267.81;5075308;28;20055;-84
2021/09/04 05:35:52;;;;;;;1.20;1.10;;;;;;;31.97;24.66;98266.63;5075079;28;20028;-84
2021/09/04 05:38:18;;;;;;;2.97;1.65;;;;;;;31.70;24.75;98268.81;5072597;28;20032;-83
2021/09/04 05:40:44;;;;;;;2.53;1.70;;;;;;;31.53;25.08;98271.25;5073664;28;20361;-83
2021/09/04 05:43:10;;;;;;;2.90;1.75;;;;;;;31.66;25.18;98276.72;5053943;28;20037;-83
2021/09/04 05:45:36;;;;;;;1.80;1.70;;;;;;;31.61;25.59;98277.38;5071059;28;20024;-84
2021/09/04 05:48:03;;;;;;;2.80;2.00;;;;;;;31.46;25.57;98276.53;5056248;28;20106;-84
2021/09/04 05:50:29;;;;;;;2.60;1.40;;;;;;;31.63;25.20;98275.63;5075547;28;20025;-84
2021/09/04 05:52:55;;;;;;;1.73;1.20;;;;;;;31.82;25.51;98271.44;5075380;28;20035;-84
2021/09/04 05:55:21;;;;;;;1.88;1.23;;;;;;;32.44;24.54;98268.63;5075032;28;20392;-84
2021/09/04 05:57:47;;;;;;;1.98;1.30;;;;;;;32.85;24.62;98277.44;5075528;28;20436;-84
2021/09/04 06:00:14;;;;;;;1.30;1.13;;;;;;;32.83;24.74;98279.97;5053572;28;20036;-84
2021/09/04 06:02:40;;;;;;;1.48;1.17;;;;;;;33.06;24.42;98281.97;5048545;28;20036;-84
2021/09/04 06:05:07;;;;;;;1.95;1.73;;;;;;;33.53;23.91;98283.81;5068425;28;20082;-84
2021/09/04 06:07:33;;;;;;;1.50;1.40;;;;;;;33.92;23.62;98285.97;5053032;28;20028;-84
2021/09/04 06:09:59;;;;;;;1.67;1.58;;;;;;;34.33;23.34;98280.31;5071183;28;20071;-84
2021/09/04 06:12:25;;;;;;;1.73;1.20;;;;;;;34.53;23.47;98280.31;5050064;28;20029;-84
2021/09/04 06:14:51;;;;;;;1.17;1.05;;;;;;;34.61;22.71;98285.06;5069128;28;20153;-84
2021/09/04 06:17:17;;;;;;;1.50;1.13;;;;;;;34.70;22.61;98281.28;5070238;28;20060;-84
2021/09/04 06:19:43;;;;;;;1.52;1.42;;;;;;;34.82;22.88;98280.13;5072935;28;20041;-85
2021/09/04 06:22:09;;;;;;;1.27;1.17;;;;;;;34.92;22.89;98292.13;5068560;28;20032;-84
2021/09/04 06:24:35;;;;;;;2.40;1.45;;;;;;;35.06;22.64;98286.34;5068469;28;20024;-84
2021/09/04 06:27:01;;;;;;;2.10;1.60;;;;;;;35.16;22.62;98289.81;5070659;28;20086;-84
2021/09/04 06:29:27;;;;;;;1.38;1.02;;;;;;;35.29;22.27;98279.53;5068128;28;20037;-83
2021/09/04 06:31:54;;;;;;;1.90;1.30;;;;;;;35.32;23.03;98289.16;5062756;28;20369;-84
2021/09/04 06:34:20;;;;;;;2.40;2.20;;;;;;;33.99;25.34;98296.94;5067732;28;20052;-84
2021/09/04 06:36:46;;;;;;;2.30;1.92;;;;;;;32.28;27.85;98283.28;5074616;28;20043;-84
2021/09/04 06:39:12;;;;;;;2.00;1.52;;;;;;;32.54;26.89;98287.19;5073730;28;20039;-83
2021/09/04 06:41:38;;;;;;;2.40;2.20;;;;;;;32.80;26.87;98287.44;5073512;28;20087;-84
2021/09/04 06:44:04;;;;;;;2.10;1.90;;;;;;;33.01;26.34;98294.84;5073543;28;20093;-84
2021/09/04 06:46:32;;;;;;;2.35;1.80;;;;;;;32.57;26.52;98291.91;5070086;28;20051;-84
2021/09/04 06:49:02;;;;;;;5.22;2.08;;;;;;;33.31;25.12;98301.28;5072640;28;20032;-84
2021/09/04 06:51:29;;;;;;;6.03;2.47;;;;;;;33.14;24.85;98294.56;5072174;28;20101;-84
2021/09/04 06:53:55;;;;;;;2.40;2.03;;;;;;;33.17;25.90;98302.09;5071923;28;20044;-84
2021/09/04 06:56:21;;;;;;;2.65;2.08;;;;;;;33.29;26.03;98307.47;5071104;28;20028;-84
2021/09/04 06:58:47;;;;;;;2.83;2.22;;;;;;;33.77;24.75;98308.00;5072742;28;20028;-84
2021/09/04 07:01:13;;;;;;;5.85;2.45;;;;;;;32.51;26.18;98304.47;5070730;28;20228;-84
2021/09/04 07:03:39;;;;;;;3.63;2.78;;;;;;;32.42;26.42;98307.31;5071795;28;20028;-84
2021/09/04 07:06:05;;;;;;;4.30;3.10;;;;;;;32.40;25.85;98307.03;5071077;28;20027;-84
2021/09/04 07:08:31;;;;;;;4.20;2.83;;;;;;;32.24;25.93;98307.47;5072654;28;20404;-84
2021/09/04 07:10:57;;;;;;;5.95;2.95;;;;;;;32.39;26.33;98308.31;5071018;28;20028;-84
2021/09/04 07:13:23;;;;;;;5.95;3.72;;;;;;;32.33;26.20;98310.25;5072044;28;20068;-84
2021/09/04 07:15:49;;;;;;;3.60;3.03;;;;;;;32.33;26.21;98315.94;5069979;28;20090;-84
2021/09/04 07:18:15;;;;;;;4.18;3.08;;;;;;;32.98;25.30;98312.84;5068557;28;20041;-84
2021/09/04 07:20:41;;;;;;;4.82;3.15;;;;;;;33.86;25.35;98307.91;5069895;28;20032;-84
2021/09/04 07:23:07;;;;;;;3.70;2.90;;;;;;;34.41;24.44;98305.03;5071530;28;20063;-84
2021/09/04 07:25:33;;;;;;;4.93;3.65;;;;;;;33.66;24.67;98307.84;5052199;28;20025;-84
2021/09/04 07:28:00;;;;;;;4.57;3.58;;;;;;;33.39;24.89;98308.97;5063814;28;20028;-83
2021/09/04 07:30:26;;;;;;;6.22;3.90;;;;;;;33.43;25.18;98308.75;5066991;28;20028;-84
2021/09/04 07:32:55;;;;;;;3.67;3.03;;;;;;;33.44;25.40;98316.03;5048937;28;20207;-86
2021/09/04 07:35:22;;;;;;;6.13;3.70;;;;;;;33.27;24.94;98321.44;5068729;28;20094;-85
2021/09/04 07:37:48;;;;;;;5.03;4.45;;;;;;;33.17;25.49;98316.31;5049488;28;20107;-84
2021/09/04 07:40:14;;;;;;;4.70;3.50;;;;;;;32.46;26.77;98322.94;5071223;28;20045;-85
2021/09/04 07:42:40;;;;;;;4.35;3.58;;;;;;;32.24;27.51;98327.38;5053630;28;20036;-87
2021/09/04 07:45:07;;;;;;;6.22;4.32;;;;;;;31.29;27.63;98327.16;5071805;28;20041;-85
2021/09/04 07:47:33;;;;;;;6.53;4.90;;;;;;;31.56;27.36;98329.94;5069499;28;20153;-85
2021/09/04 07:49:59;;;;;;;7.47;5.32;;;;;;;32.27;26.79;98323.56;5069883;28;20086;-85
2021/09/04 07:52:25;;;;;;;8.27;5.68;;;;;;;32.81;25.84;98322.34;5038882;28;20463;-85
2021/09/04 07:54:51;;;;;;;6.45;4.32;;;;;;;33.46;25.46;98324.06;5068510;28;20142;-85
2021/09/04 07:57:18;;;;;;;6.43;4.40;;;;;;;34.08;24.86;98330.25;5066986;28;20032;-85
2021/09/04 07:59:44;;;;;;;6.38;4.57;;;;;;;33.88;24.61;98335.88;5051390;28;20033;-88
2021/09/04 08:02:10;;;;;;;6.28;4.18;;;;;;;33.64;24.71;98333.19;5063176;28;20040;-86
2021/09/04 08:04:36;;;;;;;7.45;4.72;;;;;;;33.84;24.22;98332.47;5068346;28;20396;-85
2021/09/04 08:07:02;;;;;;;7.82;4.55;;;;;;;33.62;24.47;98340.66;5068952;28;20037;-85
2021/09/04 08:09:28;;;;;;;6.60;5.22;;;;;;;33.15;25.30;98335.94;5068154;28;20205;-85
2021/09/04 08:11:54;;;;;;;5.25;4.18;;;;;;;33.49;25.45;98340.97;5067491;28;20033;-84
2021/09/04 08:14:21;;;;;;;5.18;3.83;;;;;;;33.68;25.21;98333.75;5063439;28;20044;-84
2021/09/04 08:16:47;;;;;;;4.88;3.85;;;;;;;33.88;24.32;98338.75;5066087;28;20032;-84
2021/09/04 08:19:13;;;;;;;3.83;3.38;;;;;;;33.30;25.62;98334.66;5066389;28;20052;-84
2021/09/04 08:21:39;;;;;;;5.45;4.60;;;;;;;32.58;26.33;98341.81;5064601;28;20086;-84
2021/09/04 08:24:05;;;;;;;11.20;5.57;;;;;;;33.34;25.55;98343.81;5062650;28;20856;-84
2021/09/04 08:26:31;;;;;;;3.60;3.25;;;;;;;33.49;25.39;98343.00;5066526;28;20056;-83
2021/09/04 08:28:57;;;;;;;5.47;4.05;;;;;;;34.21;24.71;98347.00;5042184;28;20028;-84
2021/09/04 08:31:23;;;;;;;5.63;4.50;;;;;;;33.47;24.80;98339.88;5070380;28;20040;-84
2021/09/04 08:33:50;;;;;;;10.95;6.75;;;;;;;34.20;25.02;98343.38;5067639;28;20157;-85
2021/09/04 08:36:16;;;;;;;8.38;6.03;;;;;;;32.56;26.33;98344.38;5067696;28;20086;-84
2021/09/04 08:38:42;;;;;;;7.05;4.70;;;;;;;33.60;25.08;98338.31;5066214;28;20043;-84
2021/09/04 08:41:08;;;;;;;6.57;4.82;;;;;;;33.55;25.67;98336.16;5067217;28;20115;-84
2021/09/04 08:43:34;;;;;;;6.70;4.50;;;;;;;34.21;24.50;98342.09;5069713;28;20040;-84
2021/09/04 08:46:01;;;;;;;7.57;4.85;;;;;;;32.55;27.21;98345.66;5064858;28;20440;-83
2021/09/04 08:48:28;;;;;;;7.00;5.90;;;;;;;32.90;26.46;98345.81;5071235;28;20054;-83
2021/09/04 08:50:54;;;;;;;6.38;4.70;;;;;;;33.37;26.15;98345.66;5044669;28;20036;-85
2021/09/04 08:53:21;;;;;;;6.57;5.00;;;;;;;33.24;27.18;98353.72;5061917;28;20036;-84
2021/09/04 08:55:48;;;;;;;7.68;4.90;;;;;;;34.25;25.40;98350.44;5065738;28;20107;-85
2021/09/04 08:58:14;;;;;;;9.75;5.28;;;;;;;33.80;26.42;98343.25;5066916;28;20457;-84
2021/09/04 09:00:43;;;;;;;7.50;4.82;;;;;;;34.79;24.41;98340.25;5064416;28;20032;-84
2021/09/04 09:03:28;;;;;;;6.78;4.65;;;;;;;34.06;24.98;98347.06;5047742;28;20039;-83
2021/09/04 09:05:55;;;;;;;5.75;4.60;;;;;;;33.07;27.26;98349.78;5064477;28;20031;-83
2021/09/04 09:08:26;;;;;;;7.20;5.18;;;;;;;33.20;27.59;98350.28;5062304;28;20500;-84
2021/09/04 09:10:55;;;;;;;7.28;4.65;;;;;;;34.73;24.68;98343.03;5061392;28;20121;-83
2021/09/04 09:13:22;;;;;;;6.63;4.75;;;;;;;34.77;24.52;98352.16;5069650;28;20802;-83
2021/09/04 09:15:51;;;;;;;6.45;5.43;;;;;;;33.58;26.01;98351.47;5067095;28;20035;-84
2021/09/04 09:18:18;;;;;;;7.45;5.10;;;;;;;33.10;26.89;98348.81;5068394;28;20056;-83
2021/09/04 09:20:55;;;;;;;7.60;6.10;;;;;;;32.99;26.79;98350.63;5042552;28;20400;-84
2021/09/04 09:23:22;;;;;;;8.98;5.78;;;;;;;33.96;25.84;98345.56;5070839;28;20055;-84
2021/09/04 09:25:48;;;;;;;10.45;5.97;;;;;;;33.41;26.20;98351.16;5072761;28;20028;-83
2021/09/04 09:28:17;;;;;;;8.82;6.50;;;;;;;33.59;25.86;98347.34;5072898;28;20446;-84
2021/09/04 09:30:48;;;;;;;8.60;6.53;;;;;;;34.84;25.69;98345.22;5070758;28;20064;-83
2021/09/04 09:33:17;;;;;;;7.50;5.72;;;;;;;35.09;23.47;98344.50;5071897;28;20037;-83
2021/09/04 09:35:45;;;;;;;6.93;5.03;;;;;;;35.10;24.44;98357.50;5070759;28;20396;-82
2021/09/04 09:38:14;;;;;;;6.50;4.93;;;;;;;35.61;23.76;98362.41;5071545;28;20028;-84
2021/09/04 09:40:41;;;;;;;5.88;5.28;;;;;;;36.32;23.26;98350.69;5056178;28;20484;-84
2021/09/04 09:43:14;;;;;;;8.02;5.03;;;;;;;36.23;22.89;98350.09;5068102;28;20032;-83
2021/09/04 09:45:48;;;;;;;6.47;4.20;;;;;;;36.25;23.48;98348.31;5072607;28;20047;-81
2021/09/04 09:48:26;;;;;;;5.93;4.60;;;;;;;36.56;21.98;98347.44;5072056;28;20036;-82
2021/09/04 09:50:54;;;;;;;6.28;4.30;;;;;;;36.44;23.00;98346.59;5072425;28;20041;-82
2021/09/04 09:53:22;;;;;;;7.82;5.40;;;;;;;34.40;25.32;98356.88;5069870;28;20454;-80
2021/09/04 09:55:51;;;;;;;7.20;5.65;;;;;;;34.03;25.34;98348.03;5070708;28;20487;-81
2021/09/04 09:58:19;;;;;;;5.10;3.80;;;;;;;33.95;25.43;98341.97;5075345;28;20472;-81
2021/09/04 10:00:46;;;;;;;7.40;5.93;;;;;;;31.83;29.31;98352.53;5075838;28;20045;-81
2021/09/04 10:03:13;;;;;;;8.60;5.80;;;;;;;31.11;30.19;98347.84;5076261;28;20111;-80
2021/09/04 10:05:40;;;;;;;8.00;6.28;;;;;;;31.09;31.19;98355.25;5074270;28;20384;-81
2021/09/04 10:08:06;;;;;;;9.77;7.53;;;;;;;30.89;32.00;98352.13;5072682;28;20506;-81
2021/09/04 10:10:40;;;;;;;10.48;7.40;;;;;;;30.27;31.20;98348.78;5070852;28;20399;-81
2021/09/04 10:13:07;;;;;;;7.15;6.30;;;;;;;30.93;31.16;98353.56;5071784;28;20029;-81
2021/09/04 10:15:36;;;;;;;9.57;7.07;;;;;;;32.08;29.55;98349.25;5074377;28;20392;-81
2021/09/04 10:18:05;;;;;;;6.90;5.65;;;;;;;32.62;28.16;98345.28;5072841;28;20032;-83
2021/09/04 10:20:32;;;;;;;10.60;6.35;;;;;;;32.65;28.05;98343.53;5055218;28;20040;-81
2021/09/04 10:23:20;;;;;;;8.15;6.25;;;;;;;31.97;28.65;98337.63;5070980;28;20107;-81
2021/09/04 10:25:46;;;;;;;8.88;5.78;;;;;;;32.83;28.68;98336.88;5070445;28;20094;-81
2021/09/04 10:28:12;;;;;;;6.38;4.93;;;;;;;34.42;25.56;98331.47;5070070;28;20028;-81
2021/09/04 10:30:39;;;;;;;7.70;5.93;;;;;;;34.66;24.58;98338.53;5061459;28;20476;-81
2021/09/04 10:33:18;;;;;;;7.60;5.50;;;;;;;34.83;23.79;98341.59;5066655;28;20029;-81
2021/09/04 10:35:44;;;;;;;8.45;6.18;;;;;;;33.94;26.27;98334.69;5066864;28;20033;-81
2021/09/04 10:38:19;;;;;;;9.57;7.80;;;;;;;32.62;27.78;98333.13;5067974;28;20098;-81
2021/09/04 10:40:51;;;;;;;11.95;9.02;;;;;;;31.23;30.30;98340.41;5068681;28;20492;-81
2021/09/04 10:43:20;;;;;;;16.63;9.18;;;;;;;30.94;31.30;98343.00;5067928;28;20031;-81
2021/09/04 10:45:49;;;;;;;16.15;9.65;;;;;;;30.73;31.27;98339.84;5062870;28;20032;-81
2021/09/04 10:48:18;;;;;;;15.25;11.25;;;;;;;29.47;33.38;98351.66;5072707;28;20036;-81
2021/09/04 10:51:02;;;;;;;16.73;11.90;;;;;;;29.09;33.93;98351.06;5067872;28;20081;-81
2021/09/04 10:54:00;;;;;;;20.38;13.63;;;;;;;28.73;34.56;98351.59;5062881;28;20125;-81
2021/09/04 10:56:36;;;;;;;19.00;12.73;;;;;;;28.74;34.80;98351.16;5007201;28;20094;-83
2021/09/04 10:59:03;;;;;;;19.45;14.77;;;;;;;28.23;35.62;98354.59;5071125;28;20476;-83
2021/09/04 11:01:38;;;;;;;20.33;14.98;;;;;;;27.71;35.71;98353.06;5050353;28;20032;-83
2021/09/04 11:04:05;;;;;;;24.23;15.10;;;;;;;27.35;36.70;98358.25;5065894;28;20035;-83
2021/09/04 11:06:31;;;;;;;18.58;13.35;;;;;;;28.41;34.82;98357.59;5065717;28;20068;-83
2021/09/04 11:08:58;;;;;;;21.30;14.48;;;;;;;27.73;35.84;98366.72;5072372;28;20067;-83
2021/09/04 11:11:38;;;;;;;22.75;15.05;;;;;;;27.81;35.32;98353.97;5072523;28;20032;-83
2021/09/04 11:14:24;;;;;;;19.10;14.02;;;;;;;28.04;34.62;98360.06;5061674;28;20488;-83
2021/09/04 11:16:52;;;;;;;17.13;12.55;;;;;;;28.06;34.86;98356.78;5072786;28;20503;-83
2021/09/04 11:19:33;;;;;;;14.18;11.38;;;;;;;28.95;33.82;98355.25;5072175;28;20040;-83
2021/09/04 11:22:10;;;;;;;19.38;12.27;;;;;;;29.54;33.06;98359.06;5071554;28;20043;-83
2021/09/04 11:24:44;;;;;;;16.38;11.93;;;;;;;29.11;33.13;98352.19;5073958;28;20028;-83
2021/09/04 11:27:21;;;;;;;16.05;11.10;;;;;;;29.50;32.47;98344.28;5054303;28;20059;-83
2021/09/04 11:29:51;;;;;;;14.57;9.57;;;;;;;30.54;31.90;98341.13;5072785;28;20033;-83
2021/09/04 11:32:20;;;;;;;15.80;11.98;;;;;;;29.81;32.98;98333.72;5051650;28;20028;-83